New Hamburg, Missouri
Current Conditions -  °F | °C
As of 5:53 AM on Friday 28 Nov 2014 (Local Time) from KCGI Reporting Station
Clear Clear  
Wind Chill: 20°   Ceiling: Unl
Heat Index: 29°   Visibility: 8mi
Dew Point: 26°   Wind: 10mph
Humidity: 89%   Direction: 150°SSE
Pressure: 30.37"   Gusts: NA
Location:  37.0755°N, 89.5496°W
Report Text: KCGI 281153Z AUTO 15009KT 8SM CLR M02/M03 A3037 RMK AO2 SLP287 T10171033 11006 21028 58017 TSNO
Loading
Personal Weather Stations






























Interactive Weather Map New forecast layout! Learn more

10-Day Weather Forecast

Advertisements
Track Severe Weather on mobile